Time;durP1;ratioP1;P1;durP2;ratioP2;P2;SDS_P1;SDS_P2;PMS_P1;PMS_P2;Temp;Humidity;BMP_temperature;BMP_pressure;BME280_temperature;BME280_humidity;BME280_pressure;Samples;Min_cycle;Max_cycle;Signal;HPM_P1;HPM_P2
2021/08/17 00:01:58;;;;;;;3.88;3.67;;;19.40;54.00;;;;;;5055331;28;20040;-83
2021/08/17 00:04:25;;;;;;;3.63;3.42;;;19.40;54.10;;;;;;5056964;28;20029;-82
2021/08/17 00:06:51;;;;;;;3.33;3.13;;;19.40;54.10;;;;;;5057155;28;20048;-82
2021/08/17 00:09:17;;;;;;;3.65;3.38;;;19.30;54.80;;;;;;5053212;28;20081;-83
2021/08/17 00:11:43;;;;;;;3.20;3.10;;;19.30;54.30;;;;;;5041041;28;20025;-82
2021/08/17 00:14:09;;;;;;;3.65;3.45;;;19.30;54.30;;;;;;5056972;28;20489;-83
2021/08/17 00:16:35;;;;;;;3.20;3.10;;;19.20;54.30;;;;;;5056441;28;20048;-83
2021/08/17 00:19:02;;;;;;;3.58;3.38;;;19.20;54.40;;;;;;5056682;28;20031;-82
2021/08/17 00:21:28;;;;;;;3.45;3.25;;;19.20;54.40;;;;;;5036518;28;20072;-84
2021/08/17 00:23:56;;;;;;;3.65;3.35;;;19.20;54.50;;;;;;5056024;28;20032;-84
2021/08/17 00:26:22;;;;;;;3.65;3.45;;;19.20;54.50;;;;;;5073903;28;20029;-83
2021/08/17 00:28:48;;;;;;;3.22;3.08;;;19.20;54.50;;;;;;5055521;28;20186;-83
2021/08/17 00:31:14;;;;;;;3.40;3.20;;;19.20;54.50;;;;;;5054783;28;20104;-82
2021/08/17 00:33:40;;;;;;;3.30;3.20;;;19.20;54.60;;;;;;5055427;28;20068;-83
2021/08/17 00:36:06;;;;;;;3.20;3.00;;;19.20;54.50;;;;;;5018694;28;20041;-83
2021/08/17 00:38:37;;;;;;;3.50;3.30;;;19.20;54.60;;;;;;5058437;28;20047;-83
2021/08/17 00:41:05;;;;;;;;;;;19.20;54.60;;;;;;5037535;28;20033;-82
2021/08/17 00:43:31;;;;;;;3.65;3.45;;;19.10;54.60;;;;;;5056187;28;20284;-83
2021/08/17 00:45:57;;;;;;;3.20;3.10;;;19.20;54.50;;;;;;5056063;28;20401;-83
2021/08/17 00:48:23;;;;;;;3.38;3.20;;;19.10;55.10;;;;;;5018573;28;20029;-82
2021/08/17 00:50:49;;;;;;;3.30;3.10;;;19.20;54.60;;;;;;5055428;28;20481;-82
2021/08/17 00:53:15;;;;;;;4.57;3.20;;;19.10;54.60;;;;;;5072364;28;20374;-82
2021/08/17 00:55:41;;;;;;;3.30;3.10;;;19.10;54.60;;;;;;5038600;28;20040;-83
2021/08/17 00:58:07;;;;;;;2.83;2.72;;;19.10;54.70;;;;;;5022076;28;21756;-82
2021/08/17 01:00:33;;;;;;;2.80;2.70;;;19.10;54.70;;;;;;5036216;28;20033;-83
2021/08/17 01:02:59;;;;;;;3.45;3.25;;;19.10;54.70;;;;;;5035266;28;20040;-84
2021/08/17 01:05:29;;;;;;;3.22;3.13;;;19.10;54.70;;;;;;5058062;28;20033;-83
2021/08/17 01:07:55;;;;;;;3.25;3.05;;;19.10;54.80;;;;;;5055524;28;20047;-83
2021/08/17 01:10:22;;;;;;;3.67;3.47;;;19.10;54.80;;;;;;5036923;28;20276;-82
2021/08/17 01:12:48;;;;;;;3.45;3.25;;;19.10;54.80;;;;;;5038395;28;20040;-84
2021/08/17 01:15:14;;;;;;;3.45;3.25;;;19.10;54.90;;;;;;5050776;28;20021;-82
2021/08/17 01:17:44;;;;;;;3.30;3.10;;;19.10;55.00;;;;;;5073114;28;20478;-83
2021/08/17 01:20:15;;;;;;;3.58;3.38;;;19.00;55.00;;;;;;5054061;28;20041;-83
2021/08/17 01:22:41;;;;;;;13.93;3.20;;;19.00;55.10;;;;;;5055722;28;20036;-83
2021/08/17 01:25:09;;;;;;;3.13;3.03;;;19.00;55.20;;;;;;5038088;28;20033;-82
2021/08/17 01:27:36;;;;;;;3.50;3.30;;;18.90;55.20;;;;;;5054052;28;20036;-82
2021/08/17 01:30:02;;;;;;;3.65;3.45;;;18.90;55.30;;;;;;5052136;28;20522;-83
2021/08/17 01:32:29;;;;;;;3.67;3.47;;;18.90;55.30;;;;;;5056725;28;20037;-82
2021/08/17 01:34:55;;;;;;;3.60;3.40;;;18.90;55.30;;;;;;5054190;28;20501;-82
2021/08/17 01:37:21;;;;;;;3.22;3.08;;;18.90;55.30;;;;;;5055346;28;20041;-83
2021/08/17 01:40:03;;;;;;;3.63;3.40;;;18.90;55.30;;;;;;5037768;28;20025;-82
2021/08/17 01:42:30;;;;;;;3.63;3.33;;;18.90;55.30;;;;;;5038952;28;20032;-81
2021/08/17 01:44:59;;;;;;;3.53;3.33;;;18.90;55.40;;;;;;5035638;28;20037;-83
2021/08/17 01:47:28;;;;;;;3.70;3.50;;;18.90;55.30;;;;;;5054573;28;20037;-83
2021/08/17 01:49:54;;;;;;;3.63;3.42;;;19.00;55.30;;;;;;5021013;28;20061;-83
2021/08/17 01:52:20;;;;;;;3.60;3.42;;;18.90;55.30;;;;;;5021045;28;20033;-83
2021/08/17 01:54:46;;;;;;;3.60;3.40;;;19.00;55.30;;;;;;5037395;28;20020;-83
2021/08/17 01:57:13;;;;;;;2.90;2.80;;;19.00;55.30;;;;;;5049797;28;20421;-82
2021/08/17 01:59:39;;;;;;;3.75;3.55;;;19.00;55.40;;;;;;5071866;28;20033;-83
2021/08/17 02:02:08;;;;;;;3.25;3.15;;;19.00;55.40;;;;;;5030411;28;20026;-83
2021/08/17 02:04:37;;;;;;;3.70;3.50;;;19.00;55.40;;;;;;5059883;28;20048;-81
2021/08/17 02:07:03;;;;;;;3.45;3.30;;;19.00;55.40;;;;;;5036604;28;20492;-84
2021/08/17 02:09:30;;;;;;;3.55;3.35;;;19.00;55.40;;;;;;5062587;28;20497;-83
2021/08/17 02:11:56;;;;;;;3.58;3.38;;;19.00;55.40;;;;;;5031970;28;20037;-83
2021/08/17 02:14:22;;;;;;;3.50;3.30;;;19.00;55.40;;;;;;5048316;28;20049;-83
2021/08/17 02:16:48;;;;;;;3.58;3.38;;;19.10;55.50;;;;;;5045417;28;20413;-81
2021/08/17 02:19:16;;;;;;;3.40;3.20;;;19.00;55.40;;;;;;5031380;28;20045;-82
2021/08/17 02:21:43;;;;;;;3.40;3.20;;;19.10;55.50;;;;;;5047874;28;20041;-83
2021/08/17 02:24:09;;;;;;;3.00;2.90;;;19.00;55.40;;;;;;5063628;28;20033;-84
2021/08/17 02:26:35;;;;;;;3.28;3.17;;;19.10;55.50;;;;;;5050230;28;20025;-83
2021/08/17 02:29:01;;;;;;;3.10;3.00;;;19.00;55.50;;;;;;5046611;28;20033;-83
2021/08/17 02:31:27;;;;;;;3.58;3.38;;;19.00;55.60;;;;;;5061953;28;20513;-83
2021/08/17 02:33:53;;;;;;;3.85;3.63;;;19.00;55.70;;;;;;5046816;28;20050;-82
2021/08/17 02:36:19;;;;;;;3.15;3.05;;;19.00;55.70;;;;;;5052756;28;20029;-83
2021/08/17 02:38:45;;;;;;;3.50;3.30;;;19.00;55.70;;;;;;5055792;28;20045;-84
2021/08/17 02:41:11;;;;;;;3.50;3.30;;;19.00;56.20;;;;;;5054987;28;20485;-82
2021/08/17 02:43:38;;;;;;;3.50;3.30;;;19.00;55.80;;;;;;5054428;28;20033;-82
2021/08/17 02:46:04;;;;;;;3.58;3.38;;;19.00;55.90;;;;;;5036387;28;20394;-83
2021/08/17 02:48:30;;;;;;;2.80;2.70;;;19.00;56.00;;;;;;5018043;28;20033;-84
2021/08/17 02:50:56;;;;;;;3.20;3.00;;;18.90;56.00;;;;;;5053490;28;20036;-82
2021/08/17 02:53:22;;;;;;;3.55;3.35;;;18.90;56.00;;;;;;5071446;28;20029;-82
2021/08/17 02:55:48;;;;;;;3.45;3.15;;;19.00;56.00;;;;;;5036606;28;20028;-84
2021/08/17 02:58:15;;;;;;;3.10;3.00;;;18.90;56.00;;;;;;5036311;28;20048;-83
2021/08/17 03:00:42;;;;;;;3.38;3.17;;;18.90;56.10;;;;;;5053190;28;20473;-83
2021/08/17 03:03:08;;;;;;;3.33;3.03;;;19.00;56.10;;;;;;5032985;28;20040;-83
2021/08/17 03:05:34;;;;;;;2.95;2.85;;;18.90;56.10;;;;;;5056415;28;20039;-82
2021/08/17 03:08:03;;;;;;;3.10;3.00;;;18.90;56.20;;;;;;5035201;28;20514;-82
2021/08/17 03:10:30;;;;;;;2.80;2.70;;;18.90;56.20;;;;;;5052681;28;20049;-83
2021/08/17 03:12:56;;;;;;;3.33;3.13;;;18.90;56.40;;;;;;5037509;28;20017;-82
2021/08/17 03:15:22;;;;;;;2.92;2.83;;;18.90;56.40;;;;;;5050013;28;20025;-83
2021/08/17 03:17:48;;;;;;;2.90;2.80;;;18.90;56.40;;;;;;5058296;28;20044;-80
2021/08/17 03:20:15;;;;;;;3.20;3.00;;;18.80;56.30;;;;;;5058897;28;20075;-82
2021/08/17 03:22:41;;;;;;;3.42;3.13;;;18.80;56.30;;;;;;5057969;28;20033;-83
2021/08/17 03:25:09;;;;;;;2.72;2.63;;;18.80;56.40;;;;;;5040378;28;20030;-82
2021/08/17 03:27:35;;;;;;;3.45;3.25;;;18.80;56.50;;;;;;5055938;28;20017;-82
2021/08/17 03:30:06;;;;;;;2.80;2.70;;;18.80;56.50;;;;;;5037128;28;20037;-83
2021/08/17 03:32:32;;;;;;;2.75;2.65;;;18.70;56.60;;;;;;5058220;28;20504;-83
2021/08/17 03:34:58;;;;;;;2.72;2.63;;;18.70;56.70;;;;;;5039900;28;20056;-83
2021/08/17 03:37:24;;;;;;;2.95;2.85;;;18.70;56.80;;;;;;5039903;28;20406;-83
2021/08/17 03:39:50;;;;;;;3.03;2.92;;;18.70;56.80;;;;;;5039909;28;20028;-84
2021/08/17 03:42:16;;;;;;;5.22;3.10;;;18.60;56.80;;;;;;5053146;28;20029;-83
2021/08/17 03:44:42;;;;;;;4.38;2.95;;;18.60;56.90;;;;;;5059524;28;20480;-82
2021/08/17 03:47:08;;;;;;;3.28;2.97;;;18.60;56.80;;;;;;5056039;28;20045;-84
2021/08/17 03:49:35;;;;;;;2.97;2.75;;;18.70;56.90;;;;;;5039856;28;20036;-82
2021/08/17 03:52:01;;;;;;;3.42;3.22;;;18.70;56.80;;;;;;5038409;28;20103;-83
2021/08/17 03:54:27;;;;;;;5.22;3.15;;;18.70;56.90;;;;;;5054455;28;20512;-82
2021/08/17 03:56:53;;;;;;;2.50;2.40;;;18.70;56.90;;;;;;5038845;28;20043;-83
2021/08/17 03:59:19;;;;;;;2.70;2.60;;;18.70;57.00;;;;;;5054350;28;20402;-81
2021/08/17 04:01:46;;;;;;;2.60;2.50;;;18.70;57.00;;;;;;5057055;28;20033;-82
2021/08/17 04:04:13;;;;;;;3.03;2.83;;;18.70;57.00;;;;;;5055309;28;20028;-82
2021/08/17 04:06:39;;;;;;;2.65;2.55;;;18.70;57.00;;;;;;5038145;28;20072;-82
2021/08/17 04:09:05;;;;;;;2.80;2.70;;;18.70;57.00;;;;;;5036292;28;20036;-82
2021/08/17 04:11:31;;;;;;;2.65;2.55;;;18.70;57.10;;;;;;5058957;28;20389;-83
2021/08/17 04:13:57;;;;;;;3.30;3.10;;;18.70;57.10;;;;;;5038050;28;20029;-83
2021/08/17 04:16:23;;;;;;;2.80;2.70;;;18.70;57.10;;;;;;5056319;28;20401;-83
2021/08/17 04:18:49;;;;;;;2.85;2.65;;;18.70;57.10;;;;;;5056986;28;20036;-82
2021/08/17 04:21:16;;;;;;;2.80;2.70;;;18.70;57.10;;;;;;5034946;28;20025;-82
2021/08/17 04:23:42;;;;;;;2.50;2.40;;;18.60;57.20;;;;;;5065708;28;20029;-82
2021/08/17 04:26:08;;;;;;;2.53;2.42;;;18.60;57.20;;;;;;5037802;28;20470;-82
2021/08/17 04:28:34;;;;;;;3.05;2.85;;;18.60;57.30;;;;;;5058078;28;20051;-82
2021/08/17 04:31:00;;;;;;;3.67;3.22;;;18.60;57.30;;;;;;5046555;28;20037;-83
2021/08/17 04:33:26;;;;;;;3.13;2.92;;;18.60;57.40;;;;;;5054298;28;20128;-83
2021/08/17 04:35:52;;;;;;;2.47;2.38;;;18.60;57.40;;;;;;5056298;28;20363;-83
2021/08/17 04:38:18;;;;;;;3.92;2.90;;;18.60;57.40;;;;;;5057250;28;20041;-83
2021/08/17 04:40:44;;;;;;;2.88;2.78;;;18.60;57.40;;;;;;5056578;28;20035;-83
2021/08/17 04:43:11;;;;;;;3.47;3.17;;;18.60;57.40;;;;;;5038725;28;20041;-83
2021/08/17 04:45:38;;;;;;;3.20;3.00;;;18.60;57.40;;;;;;5054649;28;20033;-83
2021/08/17 04:48:04;;;;;;;3.30;2.70;;;18.60;57.50;;;;;;5053322;28;20044;-83
2021/08/17 04:50:30;;;;;;;3.28;3.08;;;18.60;57.50;;;;;;5040412;28;20040;-83
2021/08/17 04:52:56;;;;;;;3.00;2.80;;;18.60;57.60;;;;;;5038464;28;20411;-82
2021/08/17 04:55:22;;;;;;;2.80;2.67;;;18.60;57.60;;;;;;5055126;28;20025;-82
2021/08/17 04:57:56;;;;;;;2.97;2.88;;;18.50;57.60;;;;;;5056324;28;20029;-83
2021/08/17 05:00:23;;;;;;;3.10;2.90;;;18.50;57.70;;;;;;5034578;28;20045;-83
2021/08/17 05:02:49;;;;;;;3.13;2.92;;;18.50;57.70;;;;;;5021991;28;20037;-84
2021/08/17 05:05:15;;;;;;;3.20;3.00;;;18.50;57.80;;;;;;5054608;28;20393;-83
2021/08/17 05:07:41;;;;;;;3.25;3.05;;;18.50;57.80;;;;;;5054699;28;20064;-82
2021/08/17 05:10:11;;;;;;;3.28;3.08;;;18.50;57.80;;;;;;5054531;28;20024;-83
2021/08/17 05:12:37;;;;;;;2.92;2.83;;;18.50;57.80;;;;;;5020745;28;20033;-85
2021/08/17 05:15:04;;;;;;;2.90;2.70;;;18.50;57.80;;;;;;5052456;28;20025;-82
2021/08/17 05:17:30;;;;;;;3.50;3.20;;;18.50;57.90;;;;;;5057474;28;20055;-83
2021/08/17 05:19:56;;;;;;;2.70;2.60;;;18.50;57.90;;;;;;5026735;28;20037;-83
2021/08/17 05:22:22;;;;;;;2.70;2.60;;;18.50;57.90;;;;;;5043827;28;20037;-83
2021/08/17 05:24:48;;;;;;;3.03;2.83;;;18.50;58.00;;;;;;5055756;28;20211;-81
2021/08/17 05:27:14;;;;;;;4.35;2.95;;;18.40;58.70;;;;;;5051435;28;20030;-84
2021/08/17 05:29:40;;;;;;;3.03;2.92;;;18.40;58.20;;;;;;5057634;28;20629;-83
2021/08/17 05:32:07;;;;;;;2.72;2.63;;;18.30;58.20;;;;;;5055053;28;20037;-83
2021/08/17 05:34:33;;;;;;;2.78;2.67;;;18.30;58.20;;;;;;5037682;28;20041;-83
2021/08/17 05:36:59;;;;;;;2.58;2.47;;;18.30;58.30;;;;;;5036843;28;20028;-81
2021/08/17 05:39:25;;;;;;;3.28;2.90;;;18.30;58.40;;;;;;5051260;28;20037;-83
2021/08/17 05:41:51;;;;;;;4.03;2.58;;;18.30;58.40;;;;;;5036965;28;20064;-81
2021/08/17 05:44:17;;;;;;;4.78;3.40;;;18.30;58.40;;;;;;5056317;28;20025;-82
2021/08/17 05:46:44;;;;;;;2.42;2.33;;;18.30;58.50;;;;;;5054740;28;20033;-84
2021/08/17 05:49:10;;;;;;;9.32;3.33;;;18.20;58.50;;;;;;5037899;28;20033;-84
2021/08/17 05:51:36;;;;;;;2.80;2.70;;;18.30;58.60;;;;;;5053381;28;20025;-83
2021/08/17 05:54:02;;;;;;;4.90;3.88;;;18.30;58.60;;;;;;5052379;28;20039;-82
2021/08/17 05:56:28;;;;;;;2.97;2.78;;;18.30;58.60;;;;;;5072797;28;20386;-82
2021/08/17 05:58:54;;;;;;;3.47;2.92;;;18.30;58.60;;;;;;5036623;28;20053;-84
2021/08/17 06:01:21;;;;;;;2.92;2.72;;;18.30;58.50;;;;;;5053730;28;20058;-83
2021/08/17 06:03:47;;;;;;;2.33;2.22;;;18.30;58.60;;;;;;5036653;28;20047;-82
2021/08/17 06:06:13;;;;;;;2.72;2.63;;;18.30;58.60;;;;;;5032481;28;20033;-83
2021/08/17 06:08:39;;;;;;;3.20;3.00;;;18.30;58.60;;;;;;5057164;28;20033;-83
2021/08/17 06:11:05;;;;;;;2.42;2.33;;;18.30;58.70;;;;;;5055019;28;20026;-82
2021/08/17 06:13:31;;;;;;;2.65;2.47;;;18.30;58.70;;;;;;5037262;28;20490;-82
2021/08/17 06:15:57;;;;;;;2.58;2.47;;;18.30;58.70;;;;;;5054460;28;20037;-82
2021/08/17 06:18:23;;;;;;;2.65;2.50;;;18.30;58.70;;;;;;5033628;28;20032;-83
2021/08/17 06:20:50;;;;;;;2.45;2.35;;;18.30;59.40;;;;;;5054649;28;20029;-84
2021/08/17 06:23:16;;;;;;;2.67;2.58;;;18.30;58.80;;;;;;5069624;28;20382;-82
2021/08/17 06:25:42;;;;;;;2.60;2.50;;;18.30;58.80;;;;;;5054952;28;20041;-83
2021/08/17 06:28:09;;;;;;;2.90;2.70;;;18.30;58.80;;;;;;5019218;28;20040;-83
2021/08/17 06:30:35;;;;;;;2.67;2.47;;;18.40;58.80;;;;;;5052444;28;20044;-83
2021/08/17 06:33:02;;;;;;;3.63;2.78;;;18.40;58.80;;;;;;5051840;28;20025;-83
2021/08/17 06:35:28;;;;;;;2.78;2.58;;;18.50;58.80;;;;;;5056317;28;20040;-84
2021/08/17 06:37:54;;;;;;;2.60;2.50;;;18.50;58.80;;;;;;5036660;28;20036;-83
2021/08/17 06:40:20;;;;;;;3.10;2.90;;;18.50;58.80;;;;;;5054764;28;20398;-84
2021/08/17 06:42:46;;;;;;;3.47;3.28;;;18.50;58.80;;;;;;5036148;28;20039;-83
2021/08/17 06:45:12;;;;;;;2.63;2.53;;;18.60;58.80;;;;;;5049893;28;20033;-83
2021/08/17 06:47:52;;;;;;;3.08;2.88;;;18.60;58.80;;;;;;5054816;28;20394;-83
2021/08/17 06:50:19;;;;;;;2.97;2.80;;;18.60;58.70;;;;;;5059450;28;20059;-82
2021/08/17 06:52:45;;;;;;;2.50;2.40;;;18.70;58.70;;;;;;5040907;28;20025;-83
2021/08/17 06:55:11;;;;;;;3.20;3.00;;;18.70;58.60;;;;;;5040814;28;20044;-83
2021/08/17 06:57:38;;;;;;;2.40;2.30;;;18.80;58.60;;;;;;5057039;28;20016;-83
2021/08/17 07:00:06;;;;;;;3.25;2.95;;;18.80;58.60;;;;;;5055167;28;20411;-82
2021/08/17 07:02:32;;;;;;;2.70;2.60;;;18.90;58.60;;;;;;5074451;28;20025;-83
2021/08/17 07:04:58;;;;;;;2.53;2.42;;;18.90;58.60;;;;;;5058248;28;20025;-83
2021/08/17 07:07:24;;;;;;;2.95;2.60;;;18.90;58.70;;;;;;5058050;28;20044;-83
2021/08/17 07:09:50;;;;;;;3.22;3.03;;;18.90;58.70;;;;;;5058277;28;20512;-84
2021/08/17 07:12:16;;;;;;;2.92;2.83;;;19.00;58.70;;;;;;5054173;28;20029;-83
2021/08/17 07:14:43;;;;;;;2.92;2.80;;;19.00;58.60;;;;;;5067353;28;20389;-83
2021/08/17 07:17:09;;;;;;;3.30;2.70;;;19.00;58.60;;;;;;5023715;28;20037;-83
2021/08/17 07:19:35;;;;;;;4.05;3.60;;;19.10;58.60;;;;;;5041897;28;20389;-83
2021/08/17 07:22:01;;;;;;;2.90;2.70;;;19.10;58.50;;;;;;5067631;28;20024;-84
2021/08/17 07:24:28;;;;;;;3.00;2.90;;;19.20;58.50;;;;;;5054491;28;20041;-82
2021/08/17 07:26:54;;;;;;;2.92;2.83;;;19.20;58.50;;;;;;5039720;28;20462;-83
2021/08/17 07:29:21;;;;;;;3.00;2.90;;;19.20;58.50;;;;;;5057653;28;20041;-83
2021/08/17 07:31:47;;;;;;;2.70;2.60;;;19.20;58.60;;;;;;5056446;28;20036;-82
2021/08/17 07:34:13;;;;;;;2.90;2.80;;;19.20;58.70;;;;;;5039741;28;20056;-84
2021/08/17 07:36:39;;;;;;;3.30;3.10;;;19.20;58.70;;;;;;5056483;28;20487;-83
2021/08/17 07:39:06;;;;;;;3.10;2.90;;;19.20;58.70;;;;;;5020732;28;20036;-83
2021/08/17 07:41:32;;;;;;;2.78;2.67;;;19.20;58.70;;;;;;5058462;28;20385;-84
2021/08/17 07:43:58;;;;;;;9.45;3.40;;;19.30;58.70;;;;;;5039931;28;20037;-83
2021/08/17 07:46:24;;;;;;;2.83;2.72;;;19.30;58.60;;;;;;5054845;28;20103;-83
2021/08/17 07:48:50;;;;;;;3.15;2.95;;;19.40;58.60;;;;;;5039652;28;20418;-83
2021/08/17 07:51:17;;;;;;;3.20;3.00;;;19.50;58.40;;;;;;5053400;28;20037;-83
2021/08/17 07:53:43;;;;;;;2.70;2.60;;;19.60;58.40;;;;;;5066643;28;20032;-84
2021/08/17 07:56:09;;;;;;;3.15;2.95;;;19.60;58.30;;;;;;5039126;28;20390;-83
2021/08/17 07:58:35;;;;;;;3.10;3.00;;;19.60;58.30;;;;;;5057359;28;20036;-83
2021/08/17 08:01:01;;;;;;;3.40;3.22;;;19.70;58.40;;;;;;5056464;28;20041;-83
2021/08/17 08:03:27;;;;;;;4.63;3.50;;;19.70;58.40;;;;;;5020112;28;20039;-83
2021/08/17 08:05:54;;;;;;;3.10;3.00;;;19.70;58.30;;;;;;5039078;28;20142;-84
2021/08/17 08:08:20;;;;;;;3.17;3.03;;;19.70;58.30;;;;;;5058396;28;20032;-83
2021/08/17 08:10:46;;;;;;;3.22;3.03;;;19.80;58.30;;;;;;5057166;28;20033;-83
2021/08/17 08:13:12;;;;;;;3.20;3.10;;;19.80;58.20;;;;;;5039358;28;20505;-83
2021/08/17 08:15:38;;;;;;;3.92;3.65;;;19.80;58.20;;;;;;5037165;28;20032;-84
2021/08/17 08:18:04;;;;;;;3.30;3.10;;;19.90;58.20;;;;;;5035490;28;20044;-83
2021/08/17 08:20:30;;;;;;;5.65;3.22;;;19.90;58.20;;;;;;5069738;28;20029;-83
2021/08/17 08:22:56;;;;;;;3.90;3.70;;;19.90;58.20;;;;;;5059043;28;20390;-83
2021/08/17 08:25:22;;;;;;;3.30;3.20;;;19.90;58.20;;;;;;5055903;28;20029;-82
2021/08/17 08:27:49;;;;;;;3.40;3.15;;;20.00;58.20;;;;;;5039190;28;20035;-83
2021/08/17 08:30:15;;;;;;;3.53;3.33;;;20.00;58.20;;;;;;5034208;28;20030;-83
2021/08/17 08:32:41;;;;;;;4.20;3.75;;;20.00;58.10;;;;;;5074240;28;20029;-84
2021/08/17 08:35:08;;;;;;;4.00;3.30;;;20.10;58.20;;;;;;5038860;28;20044;-87
2021/08/17 08:37:35;;;;;;;3.65;3.45;;;20.00;58.10;;;;;;5022440;28;20029;-83
2021/08/17 08:40:01;;;;;;;3.72;3.53;;;20.00;58.10;;;;;;5038862;28;20516;-83
2021/08/17 08:42:27;;;;;;;4.00;3.80;;;20.10;58.10;;;;;;5035936;28;20394;-84
2021/08/17 08:44:53;;;;;;;3.30;3.20;;;20.20;58.10;;;;;;5021724;28;20029;-84
2021/08/17 08:47:19;;;;;;;3.60;3.30;;;20.20;57.90;;;;;;5072504;28;20394;-83
2021/08/17 08:49:48;;;;;;;3.20;3.10;;;20.20;57.90;;;;;;5038847;28;20029;-83
2021/08/17 08:52:15;;;;;;;3.65;3.45;;;20.30;57.90;;;;;;5038815;28;20397;-83
2021/08/17 08:54:41;;;;;;;3.60;3.40;;;20.30;57.80;;;;;;5037663;28;20033;-83
2021/08/17 08:57:07;;;;;;;3.60;3.42;;;20.30;57.80;;;;;;5035003;28;20490;-87
2021/08/17 08:59:33;;;;;;;3.72;3.53;;;20.40;58.30;;;;;;5056600;28;20037;-83
2021/08/17 09:02:13;;;;;;;2.95;2.85;;;20.50;57.60;;;;;;5020705;28;20371;-82
2021/08/17 09:04:48;;;;;;;3.45;3.25;;;20.60;57.50;;;;;;5054793;28;20032;-83
2021/08/17 09:07:14;;;;;;;3.08;2.97;;;20.60;57.50;;;;;;5039668;28;20021;-83
2021/08/17 09:09:40;;;;;;;3.50;3.30;;;20.50;57.50;;;;;;5037325;28;20025;-85
2021/08/17 09:12:06;;;;;;;6.45;3.70;;;20.50;57.70;;;;;;5051799;28;20060;-83
2021/08/17 09:14:33;;;;;;;3.40;3.20;;;20.40;57.70;;;;;;5056405;28;20029;-83
2021/08/17 09:17:04;;;;;;;3.50;3.30;;;20.40;57.80;;;;;;5021289;28;20037;-83
2021/08/17 09:19:35;;;;;;;3.35;3.15;;;20.40;57.80;;;;;;5021687;28;20033;-84
2021/08/17 09:22:03;;;;;;;3.20;3.10;;;20.40;57.80;;;;;;5055875;28;20052;-83
2021/08/17 09:24:34;;;;;;;3.35;3.20;;;20.50;57.70;;;;;;5036443;28;20029;-83
2021/08/17 09:27:14;;;;;;;3.28;3.08;;;20.50;57.50;;;;;;5019671;28;20028;-86
2021/08/17 09:29:41;;;;;;;3.20;3.10;;;20.50;57.50;;;;;;5082703;28;20067;-84
2021/08/17 09:32:19;;;;;;;3.70;3.50;;;20.60;57.50;;;;;;5021316;28;20478;-83
2021/08/17 09:34:58;;;;;;;3.55;3.42;;;20.60;57.40;;;;;;5067930;28;21173;-85
2021/08/17 09:37:27;;;;;;;3.92;3.72;;;20.60;57.90;;;;;;5055896;28;20044;-84
2021/08/17 09:39:54;;;;;;;4.00;3.80;;;20.70;57.20;;;;;;5052084;28;20485;-85
2021/08/17 09:42:21;;;;;;;4.57;4.30;;;20.80;57.00;;;;;;5046934;28;20049;-85
2021/08/17 09:45:06;;;;;;;3.80;3.60;;;20.80;56.90;;;;;;5051506;28;20026;-85
2021/08/17 09:47:33;;;;;;;3.90;3.70;;;20.80;56.90;;;;;;5051973;28;20513;-85
2021/08/17 09:50:20;;;;;;;3.80;3.60;;;20.90;56.80;;;;;;5052132;28;20033;-84
2021/08/17 09:52:47;;;;;;;7.50;3.58;;;20.90;56.70;;;;;;5049874;28;20065;-84
2021/08/17 09:55:14;;;;;;;4.20;3.85;;;20.90;56.60;;;;;;5050784;28;20025;-84
2021/08/17 09:57:40;;;;;;;3.40;3.30;;;20.90;56.60;;;;;;5049297;28;20024;-81
2021/08/17 10:00:09;;;;;;;3.53;3.33;;;20.90;56.50;;;;;;5031000;28;20037;-85
2021/08/17 10:02:35;;;;;;;3.78;3.58;;;20.90;56.50;;;;;;5073884;28;20041;-84
2021/08/17 10:05:01;;;;;;;3.70;3.50;;;20.80;56.60;;;;;;5071791;28;20398;-84
2021/08/17 10:07:27;;;;;;;3.65;3.45;;;20.90;56.60;;;;;;5055198;28;20037;-85
2021/08/17 10:09:54;;;;;;;3.50;3.30;;;21.00;56.50;;;;;;5071699;28;20024;-85
2021/08/17 10:12:20;;;;;;;4.10;3.80;;;21.10;56.30;;;;;;5049551;28;20041;-85
2021/08/17 10:14:46;;;;;;;3.85;3.65;;;21.20;56.20;;;;;;5055400;28;20045;-84
2021/08/17 10:17:12;;;;;;;4.25;3.95;;;21.30;55.90;;;;;;5052082;28;20040;-84
2021/08/17 10:19:38;;;;;;;4.25;4.05;;;21.50;55.80;;;;;;5071605;28;20027;-84
2021/08/17 10:22:05;;;;;;;4.07;3.78;;;21.60;55.50;;;;;;5052171;28;20043;-85
2021/08/17 10:24:33;;;;;;;3.97;3.78;;;21.60;55.40;;;;;;5051284;28;20033;-86
2021/08/17 10:27:21;;;;;;;4.05;3.85;;;21.70;55.40;;;;;;5068265;28;20028;-84
2021/08/17 10:29:59;;;;;;;3.75;3.55;;;21.80;55.20;;;;;;5081196;28;20028;-87
2021/08/17 10:32:41;;;;;;;4.10;3.90;;;21.80;55.20;;;;;;5072423;28;20051;-84
2021/08/17 10:35:29;;;;;;;4.20;4.00;;;21.90;55.00;;;;;;5071163;28;20041;-90
2021/08/17 10:38:07;;;;;;;3.88;3.67;;;21.90;54.80;;;;;;5070934;28;20036;-85
2021/08/17 10:40:48;;;;;;;4.65;4.45;;;21.90;54.70;;;;;;5071249;28;20047;-84
2021/08/17 10:43:18;;;;;;;;;;;22.00;54.70;;;;;;5071443;28;20032;-85
2021/08/17 10:45:53;;;;;;;4.05;3.85;;;22.00;54.60;;;;;;5058058;28;19912;-85
2021/08/17 10:48:48;;;;;;;4.30;4.10;;;22.00;54.50;;;;;;5035838;28;20040;-86
2021/08/17 10:51:17;;;;;;;4.65;4.15;;;22.00;54.60;;;;;;5053280;28;20021;-84
2021/08/17 10:53:44;;;;;;;4.10;3.90;;;21.90;54.60;;;;;;5066549;28;20055;-85
2021/08/17 10:56:15;;;;;;;4.35;4.15;;;21.70;54.70;;;;;;5038040;28;20033;-85
2021/08/17 10:58:43;;;;;;;11.98;4.03;;;21.70;54.70;;;;;;5056312;28;20021;-85
2021/08/17 11:01:09;;;;;;;4.13;3.78;;;21.60;54.80;;;;;;5055669;28;20044;-85
2021/08/17 11:03:47;;;;;;;4.03;3.83;;;21.60;54.80;;;;;;5054321;28;20036;-84
2021/08/17 11:06:36;;;;;;;3.83;3.63;;;21.60;54.70;;;;;;5052969;28;20060;-85
2021/08/17 11:09:03;;;;;;;3.78;3.58;;;21.60;54.60;;;;;;5067885;28;20029;-84
2021/08/17 11:11:29;;;;;;;3.90;3.70;;;21.60;54.50;;;;;;5058792;28;20025;-85
2021/08/17 11:14:15;;;;;;;7.45;3.92;;;21.70;54.40;;;;;;5055857;28;20044;-84
2021/08/17 11:16:55;;;;;;;3.92;3.72;;;21.70;54.30;;;;;;5040717;28;20037;-85
2021/08/17 11:19:23;;;;;;;4.10;3.90;;;21.60;54.20;;;;;;5056835;28;20044;-86
2021/08/17 11:21:56;;;;;;;4.35;4.05;;;21.60;54.10;;;;;;5057460;28;20392;-85
2021/08/17 11:24:26;;;;;;;3.92;3.72;;;21.60;54.10;;;;;;5037949;28;20504;-85
2021/08/17 11:27:07;;;;;;;3.72;3.53;;;21.50;54.00;;;;;;5055850;28;20025;-85
2021/08/17 11:29:52;;;;;;;3.80;3.60;;;21.50;54.10;;;;;;5057516;28;20048;-85
2021/08/17 11:32:29;;;;;;;3.67;3.47;;;21.50;54.10;;;;;;5057271;28;20032;-84
2021/08/17 11:34:57;;;;;;;3.83;3.63;;;21.40;54.10;;;;;;5056990;28;20056;-84
2021/08/17 11:37:23;;;;;;;4.07;3.85;;;21.40;54.20;;;;;;5055391;28;20025;-85
2021/08/17 11:39:54;;;;;;;3.83;3.53;;;21.40;54.10;;;;;;5054940;28;20032;-85
2021/08/17 11:42:22;;;;;;;4.18;3.95;;;21.40;54.10;;;;;;5036268;28;20021;-84
2021/08/17 11:44:56;;;;;;;3.58;3.40;;;21.30;54.10;;;;;;5039546;28;20040;-84
2021/08/17 11:47:22;;;;;;;3.90;3.70;;;21.30;54.20;;;;;;5057410;28;20421;-86
2021/08/17 11:49:53;;;;;;;3.90;3.70;;;21.30;54.20;;;;;;5038699;28;20497;-84
2021/08/17 11:52:23;;;;;;;3.90;3.70;;;21.40;54.80;;;;;;5055381;28;20024;-85
2021/08/17 11:54:51;;;;;;;3.83;3.63;;;21.40;54.00;;;;;;5037604;28;20040;-84
2021/08/17 11:57:20;;;;;;;3.60;3.40;;;21.40;54.00;;;;;;5016648;28;20374;-86
2021/08/17 11:59:47;;;;;;;3.83;3.63;;;21.40;53.90;;;;;;5040470;28;20045;-84
2021/08/17 12:02:25;;;;;;;4.18;3.90;;;21.50;53.90;;;;;;5056217;28;20036;-82
2021/08/17 12:04:53;;;;;;;4.30;4.10;;;21.50;53.80;;;;;;5038560;28;20029;-85
2021/08/17 12:07:19;;;;;;;3.83;3.63;;;21.60;53.70;;;;;;5055053;28;20029;-85
2021/08/17 12:09:47;;;;;;;3.55;3.38;;;21.70;53.50;;;;;;5055421;28;20047;-84
2021/08/17 12:12:16;;;;;;;3.90;3.70;;;21.80;53.50;;;;;;5050961;28;20025;-85
2021/08/17 12:14:42;;;;;;;4.00;3.80;;;21.80;53.40;;;;;;5057778;28;20037;-86
2021/08/17 12:17:09;;;;;;;4.28;4.07;;;21.90;53.30;;;;;;5054205;28;20433;-85
2021/08/17 12:19:48;;;;;;;4.10;3.90;;;22.00;53.20;;;;;;5054448;28;20028;-85
2021/08/17 12:22:22;;;;;;;4.28;4.07;;;22.10;53.10;;;;;;5054273;28;20029;-85
2021/08/17 12:24:48;;;;;;;4.43;4.22;;;22.20;52.90;;;;;;5038163;28;20029;-85
2021/08/17 12:27:20;;;;;;;4.72;4.50;;;22.30;52.80;;;;;;5051296;28;20037;-87
2021/08/17 12:29:47;;;;;;;4.28;4.07;;;22.40;52.60;;;;;;5064304;28;20025;-84
2021/08/17 12:32:25;;;;;;;4.22;4.03;;;22.60;52.40;;;;;;5055535;28;20367;-87
2021/08/17 12:34:51;;;;;;;5.25;4.90;;;22.80;52.20;;;;;;5055398;28;20044;-86
2021/08/17 12:37:27;;;;;;;4.93;4.72;;;23.10;51.90;;;;;;5055145;28;20025;-85
2021/08/17 12:39:55;;;;;;;5.90;5.50;;;23.40;51.50;;;;;;5038371;28;20381;-86
2021/08/17 12:42:21;;;;;;;5.68;5.40;;;23.70;51.00;;;;;;5051665;28;20036;-85
2021/08/17 12:44:49;;;;;;;5.40;5.20;;;23.80;50.70;;;;;;5055002;28;20028;-86
2021/08/17 12:47:15;;;;;;;5.82;5.53;;;23.90;50.70;;;;;;5053132;28;20044;-85
2021/08/17 12:50:04;;;;;;;5.90;5.60;;;23.90;50.60;;;;;;5055567;28;20516;-85
2021/08/17 12:52:40;;;;;;;5.63;5.30;;;23.90;50.50;;;;;;5053412;28;20036;-85